sensor_id;sensor_type;location;lat;lon;timestamp;P1;durP1;ratioP1;P2;durP2;ratioP2
39032;SDS011;24794;51.982;5.878;2022-10-14T00:00:49;31.88;;;16.45;;
39032;SDS011;24794;51.982;5.878;2022-10-14T00:01:49;39.80;;;16.40;;
39032;SDS011;24794;51.982;5.878;2022-10-14T00:02:50;67.53;;;17.05;;
39032;SDS011;24794;51.982;5.878;2022-10-14T00:03:50;60.47;;;15.85;;
39032;SDS011;24794;51.982;5.878;2022-10-14T00:04:52;58.05;;;15.80;;
39032;SDS011;24794;51.982;5.878;2022-10-14T00:05:53;56.00;;;15.05;;
39032;SDS011;24794;51.982;5.878;2022-10-14T00:06:53;46.85;;;15.07;;
39032;SDS011;24794;51.982;5.878;2022-10-14T00:07:54;56.00;;;16.52;;
39032;SDS011;24794;51.982;5.878;2022-10-14T00:08:55;90.00;;;18.42;;
39032;SDS011;24794;51.982;5.878;2022-10-14T00:09:59;74.53;;;18.95;;
39032;SDS011;24794;51.982;5.878;2022-10-14T00:11:04;91.38;;;18.50;;
39032;SDS011;24794;51.982;5.878;2022-10-14T00:12:05;68.05;;;19.05;;
39032;SDS011;24794;51.982;5.878;2022-10-14T00:13:06;64.18;;;18.95;;
39032;SDS011;24794;51.982;5.878;2022-10-14T00:14:09;63.10;;;16.08;;
39032;SDS011;24794;51.982;5.878;2022-10-14T00:15:11;50.33;;;14.90;;
39032;SDS011;24794;51.982;5.878;2022-10-14T00:16:16;41.15;;;14.25;;
39032;SDS011;24794;51.982;5.878;2022-10-14T00:17:22;73.47;;;15.93;;
39032;SDS011;24794;51.982;5.878;2022-10-14T00:18:22;42.03;;;14.77;;
39032;SDS011;24794;51.982;5.878;2022-10-14T00:19:23;34.20;;;14.10;;
39032;SDS011;24794;51.982;5.878;2022-10-14T00:20:23;51.90;;;14.88;;
39032;SDS011;24794;51.982;5.878;2022-10-14T00:21:24;60.63;;;15.18;;
39032;SDS011;24794;51.982;5.878;2022-10-14T00:22:26;45.20;;;14.65;;
39032;SDS011;24794;51.982;5.878;2022-10-14T00:23:26;39.15;;;14.43;;
39032;SDS011;24794;51.982;5.878;2022-10-14T00:24:27;42.15;;;13.60;;
39032;SDS011;24794;51.982;5.878;2022-10-14T00:25:28;37.33;;;13.68;;
39032;SDS011;24794;51.982;5.878;2022-10-14T00:26:30;45.58;;;13.05;;
39032;SDS011;24794;51.982;5.878;2022-10-14T00:27:32;28.70;;;11.65;;
39032;SDS011;24794;51.982;5.878;2022-10-14T00:28:33;44.72;;;12.35;;
39032;SDS011;24794;51.982;5.878;2022-10-14T00:29:34;39.08;;;12.27;;
39032;SDS011;24794;51.982;5.878;2022-10-14T00:30:34;37.92;;;11.95;;
39032;SDS011;24794;51.982;5.878;2022-10-14T00:31:35;32.72;;;10.73;;
39032;SDS011;24794;51.982;5.878;2022-10-14T00:32:36;26.58;;;11.52;;
39032;SDS011;24794;51.982;5.878;2022-10-14T00:33:36;44.03;;;11.80;;
39032;SDS011;24794;51.982;5.878;2022-10-14T00:34:37;44.22;;;13.15;;
39032;SDS011;24794;51.982;5.878;2022-10-14T00:35:37;65.43;;;13.30;;
39032;SDS011;24794;51.982;5.878;2022-10-14T00:36:38;49.88;;;12.75;;
39032;SDS011;24794;51.982;5.878;2022-10-14T00:37:39;73.22;;;13.00;;
39032;SDS011;24794;51.982;5.878;2022-10-14T00:38:40;47.35;;;13.73;;
39032;SDS011;24794;51.982;5.878;2022-10-14T00:39:41;58.67;;;12.93;;
39032;SDS011;24794;51.982;5.878;2022-10-14T00:40:41;65.30;;;13.32;;
39032;SDS011;24794;51.982;5.878;2022-10-14T00:41:42;57.85;;;13.07;;
39032;SDS011;24794;51.982;5.878;2022-10-14T00:42:43;27.95;;;12.60;;
39032;SDS011;24794;51.982;5.878;2022-10-14T00:43:54;38.10;;;11.82;;
39032;SDS011;24794;51.982;5.878;2022-10-14T00:45:02;55.38;;;11.65;;
39032;SDS011;24794;51.982;5.878;2022-10-14T00:46:10;47.80;;;12.48;;
39032;SDS011;24794;51.982;5.878;2022-10-14T00:47:11;46.17;;;14.07;;
39032;SDS011;24794;51.982;5.878;2022-10-14T00:48:11;46.53;;;14.23;;
39032;SDS011;24794;51.982;5.878;2022-10-14T00:50:19;40.22;;;13.25;;
39032;SDS011;24794;51.982;5.878;2022-10-14T00:51:20;45.08;;;13.55;;
39032;SDS011;24794;51.982;5.878;2022-10-14T00:52:21;51.20;;;12.25;;
39032;SDS011;24794;51.982;5.878;2022-10-14T00:53:23;47.22;;;12.10;;
39032;SDS011;24794;51.982;5.878;2022-10-14T00:54:26;43.30;;;12.32;;
39032;SDS011;24794;51.982;5.878;2022-10-14T00:55:30;56.45;;;12.88;;
39032;SDS011;24794;51.982;5.878;2022-10-14T00:56:32;39.55;;;12.75;;
39032;SDS011;24794;51.982;5.878;2022-10-14T00:57:35;52.20;;;13.32;;
39032;SDS011;24794;51.982;5.878;2022-10-14T00:58:37;39.92;;;12.20;;
39032;SDS011;24794;51.982;5.878;2022-10-14T00:59:38;49.85;;;13.57;;
39032;SDS011;24794;51.982;5.878;2022-10-14T01:00:38;50.33;;;12.73;;
39032;SDS011;24794;51.982;5.878;2022-10-14T01:01:39;57.22;;;15.02;;
39032;SDS011;24794;51.982;5.878;2022-10-14T01:02:40;67.88;;;15.38;;
39032;SDS011;24794;51.982;5.878;2022-10-14T01:03:41;86.40;;;16.20;;
39032;SDS011;24794;51.982;5.878;2022-10-14T01:04:41;68.43;;;17.15;;
39032;SDS011;24794;51.982;5.878;2022-10-14T01:05:46;35.55;;;14.93;;
39032;SDS011;24794;51.982;5.878;2022-10-14T01:08:23;56.83;;;14.52;;
39032;SDS011;24794;51.982;5.878;2022-10-14T01:10:49;45.33;;;13.88;;
39032;SDS011;24794;51.982;5.878;2022-10-14T01:12:24;40.13;;;12.13;;
39032;SDS011;24794;51.982;5.878;2022-10-14T01:13:41;34.20;;;14.32;;
39032;SDS011;24794;51.982;5.878;2022-10-14T01:15:08;34.55;;;12.90;;
39032;SDS011;24794;51.982;5.878;2022-10-14T01:16:29;41.33;;;13.07;;
39032;SDS011;24794;51.982;5.878;2022-10-14T01:21:34;78.03;;;15.68;;
39032;SDS011;24794;51.982;5.878;2022-10-14T01:24:08;50.17;;;13.75;;
39032;SDS011;24794;51.982;5.878;2022-10-14T01:25:18;43.67;;;12.93;;
39032;SDS011;24794;51.982;5.878;2022-10-14T01:29:08;33.42;;;12.00;;
39032;SDS011;24794;51.982;5.878;2022-10-14T01:30:33;52.20;;;14.02;;
39032;SDS011;24794;51.982;5.878;2022-10-14T01:31:46;47.95;;;12.88;;
39032;SDS011;24794;51.982;5.878;2022-10-14T01:32:55;34.35;;;13.20;;
39032;SDS011;24794;51.982;5.878;2022-10-14T01:34:08;51.67;;;12.85;;
39032;SDS011;24794;51.982;5.878;2022-10-14T01:35:23;63.63;;;13.23;;
39032;SDS011;24794;51.982;5.878;2022-10-14T01:36:44;47.47;;;12.48;;
39032;SDS011;24794;51.982;5.878;2022-10-14T01:37:56;38.75;;;12.88;;
39032;SDS011;24794;51.982;5.878;2022-10-14T01:39:02;66.70;;;14.15;;
39032;SDS011;24794;51.982;5.878;2022-10-14T01:40:11;40.20;;;12.70;;
39032;SDS011;24794;51.982;5.878;2022-10-14T01:41:18;44.70;;;13.05;;
39032;SDS011;24794;51.982;5.878;2022-10-14T01:42:24;25.05;;;11.90;;
39032;SDS011;24794;51.982;5.878;2022-10-14T01:43:27;24.55;;;11.45;;
39032;SDS011;24794;51.982;5.878;2022-10-14T01:44:31;38.10;;;12.77;;
39032;SDS011;24794;51.982;5.878;2022-10-14T01:45:35;25.65;;;12.38;;
39032;SDS011;24794;51.982;5.878;2022-10-14T01:46:40;41.53;;;12.57;;
39032;SDS011;24794;51.982;5.878;2022-10-14T01:47:46;77.65;;;13.73;;
39032;SDS011;24794;51.982;5.878;2022-10-14T01:48:53;39.08;;;13.95;;
39032;SDS011;24794;51.982;5.878;2022-10-14T01:50:03;42.25;;;13.30;;
39032;SDS011;24794;51.982;5.878;2022-10-14T01:51:13;28.08;;;12.77;;
39032;SDS011;24794;51.982;5.878;2022-10-14T01:52:18;70.57;;;13.93;;
39032;SDS011;24794;51.982;5.878;2022-10-14T01:53:23;39.33;;;12.77;;
39032;SDS011;24794;51.982;5.878;2022-10-14T01:54:33;27.75;;;12.55;;
39032;SDS011;24794;51.982;5.878;2022-10-14T01:55:39;24.73;;;12.55;;
39032;SDS011;24794;51.982;5.878;2022-10-14T01:56:43;26.23;;;12.05;;
39032;SDS011;24794;51.982;5.878;2022-10-14T01:57:46;29.77;;;11.48;;
39032;SDS011;24794;51.982;5.878;2022-10-14T01:58:50;42.53;;;13.60;;
39032;SDS011;24794;51.982;5.878;2022-10-14T01:59:52;63.63;;;13.75;;
39032;SDS011;24794;51.982;5.878;2022-10-14T02:00:54;52.65;;;13.50;;
39032;SDS011;24794;51.982;5.878;2022-10-14T02:01:55;41.90;;;14.07;;
39032;SDS011;24794;51.982;5.878;2022-10-14T02:02:55;43.03;;;14.20;;
39032;SDS011;24794;51.982;5.878;2022-10-14T02:03:56;54.75;;;14.35;;
39032;SDS011;24794;51.982;5.878;2022-10-14T02:04:57;28.88;;;12.90;;
39032;SDS011;24794;51.982;5.878;2022-10-14T02:05:59;27.08;;;13.70;;
39032;SDS011;24794;51.982;5.878;2022-10-14T02:08:37;28.92;;;14.07;;
39032;SDS011;24794;51.982;5.878;2022-10-14T02:11:17;40.05;;;13.85;;
39032;SDS011;24794;51.982;5.878;2022-10-14T02:12:29;37.10;;;13.88;;
39032;SDS011;24794;51.982;5.878;2022-10-14T02:13:48;30.08;;;13.52;;
39032;SDS011;24794;51.982;5.878;2022-10-14T02:15:06;26.77;;;12.82;;
39032;SDS011;24794;51.982;5.878;2022-10-14T02:16:47;40.80;;;13.93;;
39032;SDS011;24794;51.982;5.878;2022-10-14T02:20:13;55.53;;;14.32;;
39032;SDS011;24794;51.982;5.878;2022-10-14T02:21:29;67.10;;;15.55;;
39032;SDS011;24794;51.982;5.878;2022-10-14T02:22:43;51.33;;;14.57;;
39032;SDS011;24794;51.982;5.878;2022-10-14T02:23:49;70.18;;;16.33;;
39032;SDS011;24794;51.982;5.878;2022-10-14T02:24:59;35.97;;;15.52;;
39032;SDS011;24794;51.982;5.878;2022-10-14T02:26:05;28.52;;;14.48;;
39032;SDS011;24794;51.982;5.878;2022-10-14T02:27:10;28.10;;;14.63;;
39032;SDS011;24794;51.982;5.878;2022-10-14T02:28:17;30.60;;;13.98;;
39032;SDS011;24794;51.982;5.878;2022-10-14T02:29:20;33.17;;;13.90;;
39032;SDS011;24794;51.982;5.878;2022-10-14T02:30:23;34.72;;;14.48;;
39032;SDS011;24794;51.982;5.878;2022-10-14T02:31:24;27.73;;;14.25;;
39032;SDS011;24794;51.982;5.878;2022-10-14T02:32:28;42.45;;;15.60;;
39032;SDS011;24794;51.982;5.878;2022-10-14T02:33:32;46.13;;;15.27;;
39032;SDS011;24794;51.982;5.878;2022-10-14T02:34:36;38.15;;;15.48;;
39032;SDS011;24794;51.982;5.878;2022-10-14T02:35:37;39.55;;;15.30;;
39032;SDS011;24794;51.982;5.878;2022-10-14T02:36:39;34.67;;;14.63;;
39032;SDS011;24794;51.982;5.878;2022-10-14T02:37:41;38.15;;;15.57;;
39032;SDS011;24794;51.982;5.878;2022-10-14T02:38:44;36.63;;;15.05;;
39032;SDS011;24794;51.982;5.878;2022-10-14T02:39:56;38.25;;;16.08;;
39032;SDS011;24794;51.982;5.878;2022-10-14T02:41:02;46.75;;;15.85;;
39032;SDS011;24794;51.982;5.878;2022-10-14T02:42:05;36.10;;;15.07;;
39032;SDS011;24794;51.982;5.878;2022-10-14T02:43:06;56.72;;;17.33;;
39032;SDS011;24794;51.982;5.878;2022-10-14T02:44:09;43.53;;;17.63;;
39032;SDS011;24794;51.982;5.878;2022-10-14T02:45:09;37.00;;;15.55;;
39032;SDS011;24794;51.982;5.878;2022-10-14T02:46:11;32.92;;;16.02;;
39032;SDS011;24794;51.982;5.878;2022-10-14T02:47:12;35.47;;;16.08;;
39032;SDS011;24794;51.982;5.878;2022-10-14T02:48:13;32.63;;;14.80;;
39032;SDS011;24794;51.982;5.878;2022-10-14T02:49:14;30.27;;;14.43;;
39032;SDS011;24794;51.982;5.878;2022-10-14T02:50:15;32.10;;;15.02;;
39032;SDS011;24794;51.982;5.878;2022-10-14T02:51:17;33.63;;;15.20;;
39032;SDS011;24794;51.982;5.878;2022-10-14T02:52:18;31.95;;;14.68;;
39032;SDS011;24794;51.982;5.878;2022-10-14T02:53:19;40.58;;;16.27;;
39032;SDS011;24794;51.982;5.878;2022-10-14T02:54:20;28.42;;;14.80;;
39032;SDS011;24794;51.982;5.878;2022-10-14T02:55:20;44.85;;;16.75;;
39032;SDS011;24794;51.982;5.878;2022-10-14T02:56:21;31.52;;;15.57;;
39032;SDS011;24794;51.982;5.878;2022-10-14T02:57:22;34.65;;;16.85;;
39032;SDS011;24794;51.982;5.878;2022-10-14T02:58:23;35.83;;;16.25;;
39032;SDS011;24794;51.982;5.878;2022-10-14T02:59:23;36.03;;;17.20;;
39032;SDS011;24794;51.982;5.878;2022-10-14T03:00:24;32.83;;;16.35;;
39032;SDS011;24794;51.982;5.878;2022-10-14T03:01:24;35.58;;;16.38;;
39032;SDS011;24794;51.982;5.878;2022-10-14T03:02:25;33.08;;;16.38;;
39032;SDS011;24794;51.982;5.878;2022-10-14T03:03:26;35.88;;;16.85;;
39032;SDS011;24794;51.982;5.878;2022-10-14T03:04:26;34.17;;;16.30;;
39032;SDS011;24794;51.982;5.878;2022-10-14T03:05:27;33.80;;;16.58;;
39032;SDS011;24794;51.982;5.878;2022-10-14T03:06:27;34.80;;;16.38;;
39032;SDS011;24794;51.982;5.878;2022-10-14T03:07:28;34.50;;;15.98;;
39032;SDS011;24794;51.982;5.878;2022-10-14T03:08:29;34.00;;;15.88;;
39032;SDS011;24794;51.982;5.878;2022-10-14T03:09:30;31.25;;;14.65;;
39032;SDS011;24794;51.982;5.878;2022-10-14T03:10:30;28.80;;;15.25;;
39032;SDS011;24794;51.982;5.878;2022-10-14T03:11:31;31.42;;;15.23;;
39032;SDS011;24794;51.982;5.878;2022-10-14T03:12:31;39.65;;;16.02;;
39032;SDS011;24794;51.982;5.878;2022-10-14T03:13:32;36.67;;;16.88;;
39032;SDS011;24794;51.982;5.878;2022-10-14T03:14:33;41.10;;;17.52;;
39032;SDS011;24794;51.982;5.878;2022-10-14T03:15:33;40.88;;;17.70;;
39032;SDS011;24794;51.982;5.878;2022-10-14T03:16:34;33.63;;;15.85;;
39032;SDS011;24794;51.982;5.878;2022-10-14T03:17:34;32.20;;;16.67;;
39032;SDS011;24794;51.982;5.878;2022-10-14T03:18:35;47.72;;;17.73;;
39032;SDS011;24794;51.982;5.878;2022-10-14T03:19:36;37.08;;;17.27;;
39032;SDS011;24794;51.982;5.878;2022-10-14T03:20:37;38.88;;;17.08;;
39032;SDS011;24794;51.982;5.878;2022-10-14T03:21:37;40.55;;;17.20;;
39032;SDS011;24794;51.982;5.878;2022-10-14T03:22:38;43.10;;;17.50;;
39032;SDS011;24794;51.982;5.878;2022-10-14T03:23:38;36.17;;;16.52;;
39032;SDS011;24794;51.982;5.878;2022-10-14T03:24:39;42.95;;;18.30;;
39032;SDS011;24794;51.982;5.878;2022-10-14T03:25:40;39.45;;;17.75;;
39032;SDS011;24794;51.982;5.878;2022-10-14T03:26:43;43.38;;;17.25;;
39032;SDS011;24794;51.982;5.878;2022-10-14T03:27:43;38.50;;;17.10;;
39032;SDS011;24794;51.982;5.878;2022-10-14T03:28:44;40.40;;;16.83;;
39032;SDS011;24794;51.982;5.878;2022-10-14T03:29:44;37.67;;;17.25;;
39032;SDS011;24794;51.982;5.878;2022-10-14T03:30:45;37.22;;;17.60;;
39032;SDS011;24794;51.982;5.878;2022-10-14T03:31:45;38.40;;;17.42;;
39032;SDS011;24794;51.982;5.878;2022-10-14T03:32:46;38.30;;;17.67;;
39032;SDS011;24794;51.982;5.878;2022-10-14T03:33:46;39.75;;;17.27;;
39032;SDS011;24794;51.982;5.878;2022-10-14T03:34:47;35.78;;;16.65;;
39032;SDS011;24794;51.982;5.878;2022-10-14T03:35:48;41.05;;;17.23;;
39032;SDS011;24794;51.982;5.878;2022-10-14T03:36:48;56.63;;;18.85;;
39032;SDS011;24794;51.982;5.878;2022-10-14T03:37:49;43.83;;;17.98;;
39032;SDS011;24794;51.982;5.878;2022-10-14T03:38:52;43.63;;;18.75;;
39032;SDS011;24794;51.982;5.878;2022-10-14T03:39:52;41.97;;;18.38;;
39032;SDS011;24794;51.982;5.878;2022-10-14T03:40:53;46.35;;;19.40;;
39032;SDS011;24794;51.982;5.878;2022-10-14T03:41:53;41.33;;;17.73;;
39032;SDS011;24794;51.982;5.878;2022-10-14T03:42:56;44.70;;;18.88;;
39032;SDS011;24794;51.982;5.878;2022-10-14T03:43:58;36.50;;;17.60;;
39032;SDS011;24794;51.982;5.878;2022-10-14T03:44:59;41.15;;;17.48;;
39032;SDS011;24794;51.982;5.878;2022-10-14T03:45:59;41.08;;;17.98;;
39032;SDS011;24794;51.982;5.878;2022-10-14T03:47:00;41.95;;;17.02;;
39032;SDS011;24794;51.982;5.878;2022-10-14T03:48:00;43.30;;;17.75;;
39032;SDS011;24794;51.982;5.878;2022-10-14T03:49:01;40.53;;;18.00;;
39032;SDS011;24794;51.982;5.878;2022-10-14T03:50:02;37.08;;;17.45;;
39032;SDS011;24794;51.982;5.878;2022-10-14T03:51:04;43.75;;;18.45;;
39032;SDS011;24794;51.982;5.878;2022-10-14T03:52:04;42.20;;;17.70;;
39032;SDS011;24794;51.982;5.878;2022-10-14T03:53:05;43.70;;;18.27;;
39032;SDS011;24794;51.982;5.878;2022-10-14T03:54:05;37.92;;;17.65;;
39032;SDS011;24794;51.982;5.878;2022-10-14T03:55:06;43.45;;;19.17;;
39032;SDS011;24794;51.982;5.878;2022-10-14T03:56:07;41.72;;;18.40;;
39032;SDS011;24794;51.982;5.878;2022-10-14T03:57:07;39.40;;;17.98;;
39032;SDS011;24794;51.982;5.878;2022-10-14T03:58:08;40.08;;;18.02;;
39032;SDS011;24794;51.982;5.878;2022-10-14T03:59:10;82.07;;;22.20;;
39032;SDS011;24794;51.982;5.878;2022-10-14T04:00:11;59.80;;;22.20;;
39032;SDS011;24794;51.982;5.878;2022-10-14T04:01:12;51.53;;;20.55;;
39032;SDS011;24794;51.982;5.878;2022-10-14T04:02:13;48.70;;;20.83;;
39032;SDS011;24794;51.982;5.878;2022-10-14T04:03:13;50.35;;;20.30;;
39032;SDS011;24794;51.982;5.878;2022-10-14T04:04:14;42.50;;;20.75;;
39032;SDS011;24794;51.982;5.878;2022-10-14T04:05:15;42.78;;;18.50;;
39032;SDS011;24794;51.982;5.878;2022-10-14T04:06:15;41.47;;;18.98;;
39032;SDS011;24794;51.982;5.878;2022-10-14T04:07:16;43.08;;;18.92;;
39032;SDS011;24794;51.982;5.878;2022-10-14T04:08:17;42.22;;;18.33;;
39032;SDS011;24794;51.982;5.878;2022-10-14T04:09:17;44.00;;;18.58;;
39032;SDS011;24794;51.982;5.878;2022-10-14T04:10:18;38.35;;;18.30;;
39032;SDS011;24794;51.982;5.878;2022-10-14T04:11:18;40.88;;;18.80;;
39032;SDS011;24794;51.982;5.878;2022-10-14T04:12:19;41.33;;;18.48;;
39032;SDS011;24794;51.982;5.878;2022-10-14T04:13:20;47.97;;;19.85;;
39032;SDS011;24794;51.982;5.878;2022-10-14T04:14:22;49.40;;;20.48;;
39032;SDS011;24794;51.982;5.878;2022-10-14T04:15:23;45.83;;;20.50;;
39032;SDS011;24794;51.982;5.878;2022-10-14T04:16:24;47.28;;;21.92;;
39032;SDS011;24794;51.982;5.878;2022-10-14T04:17:25;50.97;;;21.85;;
39032;SDS011;24794;51.982;5.878;2022-10-14T04:18:26;47.90;;;20.77;;
39032;SDS011;24794;51.982;5.878;2022-10-14T04:19:27;42.42;;;19.58;;
39032;SDS011;24794;51.982;5.878;2022-10-14T04:20:27;43.80;;;19.85;;
39032;SDS011;24794;51.982;5.878;2022-10-14T04:21:28;42.25;;;20.10;;
39032;SDS011;24794;51.982;5.878;2022-10-14T04:22:29;39.83;;;19.40;;
39032;SDS011;24794;51.982;5.878;2022-10-14T04:23:29;39.60;;;19.05;;
39032;SDS011;24794;51.982;5.878;2022-10-14T04:24:30;37.90;;;18.67;;
39032;SDS011;24794;51.982;5.878;2022-10-14T04:25:30;39.17;;;18.75;;
39032;SDS011;24794;51.982;5.878;2022-10-14T04:26:31;43.67;;;19.92;;
39032;SDS011;24794;51.982;5.878;2022-10-14T04:27:32;39.17;;;18.80;;
39032;SDS011;24794;51.982;5.878;2022-10-14T04:28:33;40.28;;;20.05;;
39032;SDS011;24794;51.982;5.878;2022-10-14T04:29:34;38.58;;;19.55;;
39032;SDS011;24794;51.982;5.878;2022-10-14T04:30:35;42.55;;;19.27;;
39032;SDS011;24794;51.982;5.878;2022-10-14T04:31:35;42.70;;;19.05;;
39032;SDS011;24794;51.982;5.878;2022-10-14T04:32:36;39.08;;;19.00;;
39032;SDS011;24794;51.982;5.878;2022-10-14T04:33:37;40.30;;;19.83;;
39032;SDS011;24794;51.982;5.878;2022-10-14T04:34:37;41.83;;;19.33;;
39032;SDS011;24794;51.982;5.878;2022-10-14T04:35:38;51.13;;;20.50;;
39032;SDS011;24794;51.982;5.878;2022-10-14T04:36:38;39.92;;;19.95;;
39032;SDS011;24794;51.982;5.878;2022-10-14T04:37:39;46.17;;;20.80;;
39032;SDS011;24794;51.982;5.878;2022-10-14T04:38:40;43.67;;;21.30;;
39032;SDS011;24794;51.982;5.878;2022-10-14T04:39:40;45.35;;;20.63;;
39032;SDS011;24794;51.982;5.878;2022-10-14T04:40:43;56.05;;;22.35;;
39032;SDS011;24794;51.982;5.878;2022-10-14T04:41:44;49.33;;;22.48;;
39032;SDS011;24794;51.982;5.878;2022-10-14T04:42:44;49.65;;;22.95;;
39032;SDS011;24794;51.982;5.878;2022-10-14T04:43:45;44.60;;;20.95;;
39032;SDS011;24794;51.982;5.878;2022-10-14T04:44:45;49.88;;;21.23;;
39032;SDS011;24794;51.982;5.878;2022-10-14T04:45:46;56.30;;;25.83;;
39032;SDS011;24794;51.982;5.878;2022-10-14T04:46:47;56.35;;;26.08;;
39032;SDS011;24794;51.982;5.878;2022-10-14T04:47:47;53.92;;;25.70;;
39032;SDS011;24794;51.982;5.878;2022-10-14T04:48:48;46.53;;;22.73;;
39032;SDS011;24794;51.982;5.878;2022-10-14T04:49:49;55.65;;;23.08;;
39032;SDS011;24794;51.982;5.878;2022-10-14T04:50:50;45.55;;;21.55;;
39032;SDS011;24794;51.982;5.878;2022-10-14T04:51:51;49.88;;;22.42;;
39032;SDS011;24794;51.982;5.878;2022-10-14T04:52:51;50.03;;;22.52;;
39032;SDS011;24794;51.982;5.878;2022-10-14T04:53:52;41.25;;;19.95;;
39032;SDS011;24794;51.982;5.878;2022-10-14T04:54:52;45.60;;;20.52;;
39032;SDS011;24794;51.982;5.878;2022-10-14T04:55:53;52.33;;;21.17;;
39032;SDS011;24794;51.982;5.878;2022-10-14T04:56:54;39.85;;;19.63;;
39032;SDS011;24794;51.982;5.878;2022-10-14T04:57:54;41.35;;;19.85;;
39032;SDS011;24794;51.982;5.878;2022-10-14T04:58:55;39.13;;;18.90;;
39032;SDS011;24794;51.982;5.878;2022-10-14T04:59:55;48.08;;;20.73;;
39032;SDS011;24794;51.982;5.878;2022-10-14T05:00:56;48.15;;;21.67;;
39032;SDS011;24794;51.982;5.878;2022-10-14T05:01:57;45.65;;;20.75;;
39032;SDS011;24794;51.982;5.878;2022-10-14T05:02:57;48.40;;;21.15;;
39032;SDS011;24794;51.982;5.878;2022-10-14T05:03:58;51.08;;;22.58;;
39032;SDS011;24794;51.982;5.878;2022-10-14T05:04:58;43.42;;;19.83;;
39032;SDS011;24794;51.982;5.878;2022-10-14T05:05:59;38.97;;;19.17;;
39032;SDS011;24794;51.982;5.878;2022-10-14T05:07:00;41.67;;;19.10;;
39032;SDS011;24794;51.982;5.878;2022-10-14T05:08:00;41.15;;;19.95;;
39032;SDS011;24794;51.982;5.878;2022-10-14T05:09:01;37.58;;;19.15;;
39032;SDS011;24794;51.982;5.878;2022-10-14T05:10:03;40.45;;;18.50;;
39032;SDS011;24794;51.982;5.878;2022-10-14T05:11:04;40.83;;;19.17;;
39032;SDS011;24794;51.982;5.878;2022-10-14T05:12:05;38.15;;;18.33;;
39032;SDS011;24794;51.982;5.878;2022-10-14T05:13:06;46.22;;;20.48;;
39032;SDS011;24794;51.982;5.878;2022-10-14T05:14:06;40.15;;;19.70;;
39032;SDS011;24794;51.982;5.878;2022-10-14T05:15:07;40.88;;;19.30;;
39032;SDS011;24794;51.982;5.878;2022-10-14T05:16:08;41.50;;;19.27;;
39032;SDS011;24794;51.982;5.878;2022-10-14T05:17:09;40.58;;;19.33;;
39032;SDS011;24794;51.982;5.878;2022-10-14T05:18:10;38.35;;;18.42;;
39032;SDS011;24794;51.982;5.878;2022-10-14T05:19:10;45.75;;;20.30;;
39032;SDS011;24794;51.982;5.878;2022-10-14T05:20:11;43.15;;;19.52;;
39032;SDS011;24794;51.982;5.878;2022-10-14T05:21:12;43.00;;;19.90;;
39032;SDS011;24794;51.982;5.878;2022-10-14T05:22:12;41.60;;;19.88;;
39032;SDS011;24794;51.982;5.878;2022-10-14T05:23:13;44.63;;;20.15;;
39032;SDS011;24794;51.982;5.878;2022-10-14T05:24:14;40.22;;;20.40;;
39032;SDS011;24794;51.982;5.878;2022-10-14T05:25:14;39.25;;;18.83;;
39032;SDS011;24794;51.982;5.878;2022-10-14T05:26:15;40.20;;;18.48;;
39032;SDS011;24794;51.982;5.878;2022-10-14T05:27:16;38.53;;;18.80;;
39032;SDS011;24794;51.982;5.878;2022-10-14T05:28:17;41.88;;;19.05;;
39032;SDS011;24794;51.982;5.878;2022-10-14T05:29:18;40.33;;;19.20;;
39032;SDS011;24794;51.982;5.878;2022-10-14T05:30:18;35.55;;;18.35;;
39032;SDS011;24794;51.982;5.878;2022-10-14T05:31:19;42.42;;;19.95;;
39032;SDS011;24794;51.982;5.878;2022-10-14T05:32:19;40.25;;;19.73;;
39032;SDS011;24794;51.982;5.878;2022-10-14T05:33:20;39.75;;;18.63;;
39032;SDS011;24794;51.982;5.878;2022-10-14T05:34:21;37.42;;;19.70;;
39032;SDS011;24794;51.982;5.878;2022-10-14T05:35:21;37.75;;;19.50;;
39032;SDS011;24794;51.982;5.878;2022-10-14T05:36:22;39.30;;;19.20;;
39032;SDS011;24794;51.982;5.878;2022-10-14T05:37:22;42.22;;;19.38;;
39032;SDS011;24794;51.982;5.878;2022-10-14T05:38:23;44.53;;;20.95;;
39032;SDS011;24794;51.982;5.878;2022-10-14T05:39:23;40.47;;;19.98;;
39032;SDS011;24794;51.982;5.878;2022-10-14T05:40:24;39.85;;;19.58;;
39032;SDS011;24794;51.982;5.878;2022-10-14T05:41:25;40.25;;;19.23;;
39032;SDS011;24794;51.982;5.878;2022-10-14T05:42:25;40.30;;;19.63;;
39032;SDS011;24794;51.982;5.878;2022-10-14T05:43:26;39.47;;;19.42;;
39032;SDS011;24794;51.982;5.878;2022-10-14T05:44:27;41.00;;;21.10;;
39032;SDS011;24794;51.982;5.878;2022-10-14T05:45:27;46.33;;;21.63;;
39032;SDS011;24794;51.982;5.878;2022-10-14T05:46:28;41.65;;;21.00;;
39032;SDS011;24794;51.982;5.878;2022-10-14T05:47:28;40.75;;;21.00;;
39032;SDS011;24794;51.982;5.878;2022-10-14T05:48:29;39.80;;;20.25;;
39032;SDS011;24794;51.982;5.878;2022-10-14T05:49:31;42.47;;;19.88;;
39032;SDS011;24794;51.982;5.878;2022-10-14T05:50:31;39.88;;;20.38;;
39032;SDS011;24794;51.982;5.878;2022-10-14T05:51:32;37.97;;;19.90;;
39032;SDS011;24794;51.982;5.878;2022-10-14T05:52:32;44.30;;;21.45;;
39032;SDS011;24794;51.982;5.878;2022-10-14T05:53:34;42.38;;;20.10;;
39032;SDS011;24794;51.982;5.878;2022-10-14T05:54:35;49.80;;;21.77;;
39032;SDS011;24794;51.982;5.878;2022-10-14T05:55:36;42.97;;;20.85;;
39032;SDS011;24794;51.982;5.878;2022-10-14T05:56:37;44.90;;;20.70;;
39032;SDS011;24794;51.982;5.878;2022-10-14T05:57:37;39.60;;;20.30;;
39032;SDS011;24794;51.982;5.878;2022-10-14T05:58:38;46.75;;;21.65;;
39032;SDS011;24794;51.982;5.878;2022-10-14T05:59:39;40.72;;;20.58;;
39032;SDS011;24794;51.982;5.878;2022-10-14T06:00:40;41.72;;;20.50;;
39032;SDS011;24794;51.982;5.878;2022-10-14T06:01:40;42.35;;;20.63;;
39032;SDS011;24794;51.982;5.878;2022-10-14T06:02:42;40.00;;;20.45;;
39032;SDS011;24794;51.982;5.878;2022-10-14T06:03:42;40.10;;;20.02;;
39032;SDS011;24794;51.982;5.878;2022-10-14T06:04:43;41.17;;;20.00;;
39032;SDS011;24794;51.982;5.878;2022-10-14T06:05:44;42.28;;;21.42;;
39032;SDS011;24794;51.982;5.878;2022-10-14T06:06:44;40.88;;;20.58;;
39032;SDS011;24794;51.982;5.878;2022-10-14T06:07:45;41.72;;;20.95;;
39032;SDS011;24794;51.982;5.878;2022-10-14T06:08:46;36.72;;;19.95;;
39032;SDS011;24794;51.982;5.878;2022-10-14T06:09:46;37.42;;;19.55;;
39032;SDS011;24794;51.982;5.878;2022-10-14T06:10:47;40.00;;;20.15;;
39032;SDS011;24794;51.982;5.878;2022-10-14T06:11:48;37.88;;;17.40;;
39032;SDS011;24794;51.982;5.878;2022-10-14T06:12:48;38.33;;;20.33;;
39032;SDS011;24794;51.982;5.878;2022-10-14T06:13:49;35.83;;;18.13;;
39032;SDS011;24794;51.982;5.878;2022-10-14T06:14:51;34.10;;;18.48;;
39032;SDS011;24794;51.982;5.878;2022-10-14T06:15:51;34.83;;;17.63;;
39032;SDS011;24794;51.982;5.878;2022-10-14T06:16:52;35.15;;;18.50;;
39032;SDS011;24794;51.982;5.878;2022-10-14T06:17:52;35.80;;;18.02;;
39032;SDS011;24794;51.982;5.878;2022-10-14T06:18:53;36.25;;;18.27;;
39032;SDS011;24794;51.982;5.878;2022-10-14T06:19:53;36.65;;;19.40;;
39032;SDS011;24794;51.982;5.878;2022-10-14T06:20:54;37.90;;;18.65;;
39032;SDS011;24794;51.982;5.878;2022-10-14T06:21:54;33.05;;;17.67;;
39032;SDS011;24794;51.982;5.878;2022-10-14T06:22:55;37.45;;;19.02;;